Time;durP1;ratioP1;P1;durP2;ratioP2;P2;SDS_P1;SDS_P2;PMS_P1;PMS_P2;Temp;Humidity;BMP_temperature;BMP_pressure;BME280_temperature;BME280_humidity;BME280_pressure;Samples;Min_cycle;Max_cycle;Signal;HPM_P1;HPM_P2
2021/01/17 00:00:17;;;;;;;25.20;10.83;;;0.20;86.60;;;;;;4917231;29;20505;-82
2021/01/17 00:02:47;;;;;;;27.10;12.23;;;0.10;86.50;;;;;;4931101;29;20494;-84
2021/01/17 00:05:23;;;;;;;25.70;11.83;;;0.10;86.50;;;;;;4933674;29;20027;-82
2021/01/17 00:07:50;;;;;;;26.90;12.67;;;0.10;86.50;;;;;;4938855;29;20489;-81
2021/01/17 00:10:20;;;;;;;32.63;12.33;;;0.10;86.50;;;;;;4938468;29;20101;-81
2021/01/17 00:12:50;;;;;;;26.10;11.63;;;0.10;86.40;;;;;;4915500;29;20024;-80
2021/01/17 00:15:16;;;;;;;29.57;12.60;;;0.20;86.40;;;;;;4901126;29;20047;-81
2021/01/17 00:17:43;;;;;;;27.63;13.50;;;0.10;86.20;;;;;;4901800;29;20032;-81
2021/01/17 00:20:17;;;;;;;28.57;13.20;;;0.10;86.10;;;;;;4916778;29;20040;-81
2021/01/17 00:22:43;;;;;;;33.47;13.37;;;0.10;86.30;;;;;;4913785;29;20031;-81
2021/01/17 00:25:17;;;;;;;28.97;13.70;;;0.00;86.30;;;;;;4906315;29;20029;-78
2021/01/17 00:27:53;;;;;;;28.70;12.80;;;0.10;86.50;;;;;;4909046;29;20039;-77
2021/01/17 00:30:22;;;;;;;32.23;13.30;;;0.10;86.30;;;;;;4902735;29;20043;-77
2021/01/17 00:32:52;;;;;;;29.50;12.93;;;0.00;86.50;;;;;;4918340;29;20450;-78
2021/01/17 00:35:21;;;;;;;25.47;12.40;;;0.00;86.50;;;;;;4923220;29;20033;-78
2021/01/17 00:37:51;;;;;;;27.30;12.50;;;-0.10;86.60;;;;;;4918740;29;20025;-78
2021/01/17 00:40:17;;;;;;;30.40;13.77;;;0.00;86.90;;;;;;4917909;29;20028;-77
2021/01/17 00:42:50;;;;;;;25.03;12.73;;;0.00;86.70;;;;;;4917610;29;20052;-79
2021/01/17 00:45:17;;;;;;;26.23;12.30;;;-0.10;86.70;;;;;;4918498;29;20032;-79
2021/01/17 00:47:47;;;;;;;28.07;12.63;;;-0.10;86.60;;;;;;4917709;29;20032;-79
2021/01/17 00:50:14;;;;;;;28.17;12.43;;;0.00;86.60;;;;;;4905450;29;20044;-77
2021/01/17 00:52:39;;;;;;;31.90;13.40;;;0.00;86.80;;;;;;4909295;29;20029;-79
2021/01/17 00:55:06;;;;;;;31.60;13.83;;;0.00;86.70;;;;;;4908207;29;20454;-79
2021/01/17 00:57:32;;;;;;;28.63;12.77;;;0.00;86.50;;;;;;4912474;29;20036;-79
2021/01/17 00:59:57;;;;;;;29.83;13.17;;;0.00;86.30;;;;;;4903730;29;20522;-79
2021/01/17 01:02:23;;;;;;;26.47;12.30;;;0.10;86.20;;;;;;4918492;29;20033;-77
2021/01/17 01:04:49;;;;;;;32.20;13.27;;;0.10;86.20;;;;;;4923465;29;20488;-79
2021/01/17 01:07:15;;;;;;;30.63;13.77;;;0.10;86.10;;;;;;4933592;29;20036;-79
2021/01/17 01:09:40;;;;;;;30.80;13.73;;;0.10;86.20;;;;;;4911062;29;20057;-79
2021/01/17 01:12:07;;;;;;;28.80;12.87;;;0.10;85.90;;;;;;4903734;29;20080;-78
2021/01/17 01:14:32;;;;;;;29.80;13.57;;;0.10;86.10;;;;;;4918427;29;20024;-78
2021/01/17 01:16:58;;;;;;;29.63;12.93;;;0.10;86.30;;;;;;4908150;29;20481;-79
2021/01/17 01:19:24;;;;;;;31.07;13.17;;;0.10;86.20;;;;;;4913070;29;20047;-78
2021/01/17 01:21:49;;;;;;;32.60;13.47;;;0.10;86.50;;;;;;4902173;29;20058;-79
2021/01/17 01:24:15;;;;;;;31.83;13.43;;;0.10;86.30;;;;;;4917423;29;20073;-80
2021/01/17 01:26:43;;;;;;;28.27;13.03;;;0.10;86.90;;;;;;4921865;29;20582;-79
2021/01/17 01:29:09;;;;;;;26.53;12.60;;;0.10;86.40;;;;;;4915851;29;20474;-80
2021/01/17 01:31:36;;;;;;;26.93;11.77;;;0.10;86.30;;;;;;4903633;29;20092;-79
2021/01/17 01:34:03;;;;;;;29.30;13.40;;;0.10;86.40;;;;;;4902324;29;20028;-79
2021/01/17 01:36:32;;;;;;;28.57;13.17;;;0.10;86.30;;;;;;4917743;29;20028;-78
2021/01/17 01:38:58;;;;;;;29.03;13.43;;;0.10;86.30;;;;;;4907146;29;20492;-80
2021/01/17 01:41:28;;;;;;;32.30;13.17;;;0.10;86.30;;;;;;4914250;29;20467;-77
2021/01/17 01:43:55;;;;;;;29.30;12.87;;;0.10;86.40;;;;;;4914641;29;20445;-79
2021/01/17 01:46:23;;;;;;;29.60;13.47;;;0.10;86.40;;;;;;4921315;29;20028;-80
2021/01/17 01:48:50;;;;;;;33.80;13.93;;;0.00;86.40;;;;;;4919198;29;20043;-79
2021/01/17 01:51:17;;;;;;;31.67;13.70;;;0.10;86.40;;;;;;4903295;29;20040;-79
2021/01/17 01:53:43;;;;;;;30.97;13.20;;;-0.10;86.70;;;;;;4901408;29;20582;-78
2021/01/17 01:56:09;;;;;;;29.17;13.37;;;-0.10;87.00;;;;;;4915035;29;20048;-78
2021/01/17 01:58:37;;;;;;;28.47;12.70;;;0.00;87.10;;;;;;4918719;29;20043;-81
2021/01/17 02:01:06;;;;;;;32.50;13.57;;;0.00;87.30;;;;;;4905965;29;20032;-78
2021/01/17 02:03:32;;;;;;;30.93;14.27;;;0.00;87.10;;;;;;4920315;29;20028;-77
2021/01/17 02:05:58;;;;;;;27.37;12.37;;;0.00;87.10;;;;;;4939078;29;20074;-78
2021/01/17 02:08:53;;;;;;;31.97;13.97;;;0.00;87.10;;;;;;4923412;29;20046;-77
2021/01/17 02:11:43;;;;;;;31.03;13.03;;;0.00;87.10;;;;;;4886989;29;20040;-77
2021/01/17 02:14:17;;;;;;;29.93;12.80;;;-0.10;87.30;;;;;;4906543;29;20114;-77
2021/01/17 02:16:47;;;;;;;30.23;13.53;;;-0.10;87.80;;;;;;4937281;29;20236;-79
2021/01/17 02:19:16;;;;;;;28.07;12.43;;;0.00;87.70;;;;;;4933313;29;20072;-80
2021/01/17 02:21:59;;;;;;;32.60;12.87;;;0.00;87.50;;;;;;4920542;29;20039;-79
2021/01/17 02:24:38;;;;;;;29.27;13.43;;;0.00;87.30;;;;;;4904584;29;20033;-77
2021/01/17 02:27:04;;;;;;;31.70;13.87;;;0.00;87.40;;;;;;4902422;29;20092;-81
2021/01/17 02:29:31;;;;;;;29.63;13.27;;;0.00;87.40;;;;;;4900153;29;20037;-79
2021/01/17 02:32:00;;;;;;;28.70;13.53;;;0.00;87.10;;;;;;4902150;29;20035;-79
2021/01/17 02:34:28;;;;;;;28.10;13.07;;;0.00;87.10;;;;;;4908242;29;20036;-77
2021/01/17 02:37:20;;;;;;;29.67;13.63;;;0.10;87.00;;;;;;4932808;29;20076;-79
2021/01/17 02:40:07;;;;;;;32.58;13.80;;;0.10;87.10;;;;;;4905930;29;20056;-80
2021/01/17 02:42:34;;;;;;;27.70;12.87;;;0.10;87.10;;;;;;4904239;29;20059;-79
2021/01/17 02:45:00;;;;;;;28.47;12.43;;;0.10;87.10;;;;;;4914834;29;20036;-79
2021/01/17 02:47:27;;;;;;;30.77;13.43;;;0.10;87.20;;;;;;4908768;29;20039;-78
2021/01/17 02:49:53;;;;;;;29.43;14.47;;;0.00;87.40;;;;;;4919818;29;20143;-79
2021/01/17 02:52:38;;;;;;;29.90;13.90;;;0.00;87.80;;;;;;4919639;29;20032;-78
2021/01/17 02:55:04;;;;;;;28.30;13.57;;;0.00;88.00;;;;;;4919655;29;20486;-79
2021/01/17 02:57:34;;;;;;;31.07;13.30;;;0.00;87.90;;;;;;4910109;29;20036;-78
2021/01/17 03:00:07;;;;;;;31.57;13.03;;;0.00;87.70;;;;;;4918160;29;20041;-79
2021/01/17 03:02:44;;;;;;;30.60;13.10;;;-0.10;88.30;;;;;;4921160;29;20043;-78
2021/01/17 03:05:16;;;;;;;31.50;13.97;;;-0.10;88.20;;;;;;4914002;29;20077;-79
2021/01/17 03:07:48;;;;;;;32.23;13.80;;;0.00;88.30;;;;;;4912539;29;20028;-78
2021/01/17 03:10:14;;;;;;;28.58;12.90;;;-0.10;88.50;;;;;;4904865;29;20063;-78
2021/01/17 03:12:39;;;;;;;33.03;13.83;;;-0.10;88.60;;;;;;4917688;29;20039;-78
2021/01/17 03:15:06;;;;;;;30.57;13.33;;;-0.10;88.70;;;;;;4912785;29;20457;-79
2021/01/17 03:17:32;;;;;;;31.60;13.87;;;0.00;88.80;;;;;;4908374;29;20029;-78
2021/01/17 03:19:58;;;;;;;30.53;14.00;;;0.00;88.60;;;;;;4907992;29;20037;-78
2021/01/17 03:22:24;;;;;;;27.80;12.63;;;-0.10;88.70;;;;;;4917013;29;20028;-79
2021/01/17 03:24:49;;;;;;;31.83;13.50;;;-0.10;89.00;;;;;;4918444;29;20389;-78
2021/01/17 03:27:15;;;;;;;30.10;13.13;;;-0.10;88.90;;;;;;4912138;29;20386;-78
2021/01/17 03:29:41;;;;;;;30.13;13.77;;;0.00;89.00;;;;;;4910650;29;20489;-78
2021/01/17 03:32:06;;;;;;;27.23;12.07;;;0.00;88.70;;;;;;4906388;29;20032;-79
2021/01/17 03:34:32;;;;;;;28.23;13.07;;;0.00;88.70;;;;;;4906219;29;20028;-78
2021/01/17 03:36:57;;;;;;;27.10;12.73;;;0.10;88.50;;;;;;4920043;29;20442;-79
2021/01/17 03:39:23;;;;;;;26.97;12.30;;;0.10;88.30;;;;;;4918877;29;20091;-78
2021/01/17 03:41:49;;;;;;;24.60;11.77;;;0.10;88.30;;;;;;4918355;29;20119;-79
2021/01/17 03:44:14;;;;;;;31.23;12.93;;;0.10;88.00;;;;;;4922985;29;20594;-79
2021/01/17 03:46:40;;;;;;;31.63;14.33;;;0.10;88.00;;;;;;4915863;29;20024;-79
2021/01/17 03:49:06;;;;;;;25.03;12.17;;;0.10;88.00;;;;;;4906873;29;20032;-79
2021/01/17 03:51:31;;;;;;;25.27;12.50;;;0.10;88.20;;;;;;4910743;29;20084;-78
2021/01/17 03:53:57;;;;;;;26.60;11.67;;;0.10;88.20;;;;;;4911872;29;20107;-79
2021/01/17 03:56:22;;;;;;;29.67;12.47;;;0.10;88.20;;;;;;4918801;29;20178;-79
2021/01/17 03:58:48;;;;;;;29.10;12.73;;;0.20;88.10;;;;;;4919606;29;20032;-79
2021/01/17 04:01:14;;;;;;;30.50;12.73;;;0.10;88.10;;;;;;4909575;29;20051;-79
2021/01/17 04:03:39;;;;;;;30.43;13.20;;;0.20;88.20;;;;;;4939651;29;20063;-79
2021/01/17 04:06:05;;;;;;;28.53;12.03;;;0.20;88.20;;;;;;4928077;29;20055;-80
2021/01/17 04:08:31;;;;;;;25.53;12.10;;;0.20;88.10;;;;;;4905242;29;20119;-77
2021/01/17 04:10:57;;;;;;;29.33;13.37;;;0.20;88.10;;;;;;4903212;29;20043;-80
2021/01/17 04:13:24;;;;;;;27.33;12.07;;;0.20;88.00;;;;;;4911065;29;20115;-80
2021/01/17 04:15:49;;;;;;;25.93;12.27;;;0.20;88.10;;;;;;4938734;29;20050;-80
2021/01/17 04:18:15;;;;;;;25.17;11.33;;;0.20;88.40;;;;;;4907399;29;20456;-81
2021/01/17 04:20:42;;;;;;;27.07;11.37;;;0.20;88.50;;;;;;4920977;29;20036;-81
2021/01/17 04:23:07;;;;;;;29.53;12.93;;;0.20;88.50;;;;;;4932611;29;20111;-79
2021/01/17 04:25:33;;;;;;;26.50;11.77;;;0.20;88.40;;;;;;4911667;29;20054;-80
2021/01/17 04:27:59;;;;;;;26.87;13.00;;;0.30;88.40;;;;;;4925798;29;20442;-81
2021/01/17 04:30:30;;;;;;;26.40;11.97;;;0.30;88.30;;;;;;4910640;29;20032;-81
2021/01/17 04:32:56;;;;;;;25.77;11.63;;;0.30;88.20;;;;;;4925722;29;20032;-81
2021/01/17 04:35:22;;;;;;;29.20;13.30;;;0.20;88.40;;;;;;4928703;29;20028;-81
2021/01/17 04:37:47;;;;;;;31.40;12.50;;;0.10;88.70;;;;;;4917334;29;20117;-80
2021/01/17 04:40:13;;;;;;;28.17;12.97;;;0.10;89.00;;;;;;4911686;29;20036;-81
2021/01/17 04:42:41;;;;;;;27.33;12.30;;;0.10;89.20;;;;;;4908646;29;20466;-80
2021/01/17 04:45:09;;;;;;;26.63;12.63;;;0.20;89.20;;;;;;4920151;29;20095;-81
2021/01/17 04:47:37;;;;;;;28.13;13.20;;;0.10;89.10;;;;;;4906597;29;20064;-80
2021/01/17 04:50:07;;;;;;;25.97;12.20;;;0.20;89.20;;;;;;4919559;29;20051;-81
2021/01/17 04:52:57;;;;;;;27.63;12.53;;;0.20;89.20;;;;;;4924875;29;20039;-78
2021/01/17 04:55:24;;;;;;;26.53;12.33;;;0.20;89.20;;;;;;4914171;29;20082;-81
2021/01/17 04:58:02;;;;;;;27.37;12.00;;;0.20;89.40;;;;;;4930235;29;20657;-82
2021/01/17 05:00:30;;;;;;;28.60;12.17;;;0.20;89.50;;;;;;4922063;29;20127;-81
2021/01/17 05:03:22;;;;;;;27.07;11.77;;;0.20;89.50;;;;;;4910557;29;20034;-81
2021/01/17 05:06:07;;;;;;;25.73;11.63;;;0.20;89.40;;;;;;4925077;29;20060;-81
2021/01/17 05:08:33;;;;;;;25.43;11.87;;;0.30;89.50;;;;;;4909626;29;20031;-78
2021/01/17 05:11:07;;;;;;;29.57;12.43;;;0.30;89.50;;;;;;4920804;29;20095;-81
2021/01/17 05:13:48;;;;;;;29.33;12.63;;;0.30;89.60;;;;;;4914380;29;20034;-78
2021/01/17 05:16:15;;;;;;;26.93;12.00;;;0.30;89.60;;;;;;4910820;29;20028;-81
2021/01/17 05:18:47;;;;;;;29.60;12.60;;;0.30;89.80;;;;;;4937813;29;20035;-80
2021/01/17 05:21:19;;;;;;;27.02;11.40;;;0.20;90.00;;;;;;4929649;29;20035;-81
2021/01/17 05:23:47;;;;;;;27.10;11.10;;;0.30;90.10;;;;;;4941658;29;20036;-81
2021/01/17 05:26:14;;;;;;;23.50;10.93;;;0.30;90.00;;;;;;4910046;29;20033;-81
2021/01/17 05:28:40;;;;;;;26.17;11.43;;;0.30;90.10;;;;;;4921347;29;20055;-80
2021/01/17 05:31:05;;;;;;;26.77;11.57;;;0.30;90.20;;;;;;4922427;29;20043;-81
2021/01/17 05:33:32;;;;;;;26.60;11.80;;;0.30;90.20;;;;;;4914669;29;20366;-77
2021/01/17 05:35:59;;;;;;;26.13;11.77;;;0.30;90.30;;;;;;4905803;29;20105;-80
2021/01/17 05:38:26;;;;;;;26.53;11.97;;;0.20;90.30;;;;;;4920609;29;20083;-80
2021/01/17 05:40:52;;;;;;;27.73;11.70;;;0.30;90.30;;;;;;4920384;29;20533;-80
2021/01/17 05:43:18;;;;;;;27.73;11.17;;;0.30;90.30;;;;;;4912856;29;20474;-80
2021/01/17 05:45:44;;;;;;;26.60;11.70;;;0.30;90.30;;;;;;4913032;29;20029;-78
2021/01/17 05:48:10;;;;;;;23.27;10.73;;;0.30;90.30;;;;;;4919353;29;20032;-79
2021/01/17 05:50:42;;;;;;;26.33;12.10;;;0.30;90.40;;;;;;4906807;29;20103;-79
2021/01/17 05:53:08;;;;;;;26.75;11.18;;;0.30;90.30;;;;;;4911092;29;20050;-79
2021/01/17 05:55:39;;;;;;;25.73;11.10;;;0.30;90.30;;;;;;4931554;29;20474;-77
2021/01/17 05:58:30;;;;;;;27.30;11.87;;;0.40;90.40;;;;;;4905152;29;20039;-78
2021/01/17 06:00:57;;;;;;;29.00;12.27;;;0.40;90.40;;;;;;4923669;29;20108;-79
2021/01/17 06:03:32;;;;;;;29.00;11.93;;;0.40;90.40;;;;;;4940630;29;20036;-79
2021/01/17 06:06:06;;;;;;;30.93;13.17;;;0.50;90.20;;;;;;4940093;29;20032;-78
2021/01/17 06:08:33;;;;;;;25.27;11.40;;;0.50;90.20;;;;;;4923723;29;20469;-77
2021/01/17 06:11:12;;;;;;;27.83;12.07;;;0.50;90.20;;;;;;4936858;29;20023;-79
2021/01/17 06:13:42;;;;;;;25.77;11.67;;;0.50;90.20;;;;;;4913248;29;20118;-78
2021/01/17 06:16:24;;;;;;;27.90;11.87;;;0.40;90.30;;;;;;4939985;29;20035;-79
2021/01/17 06:18:58;;;;;;;25.77;12.80;;;0.50;90.30;;;;;;4904707;29;20032;-81
2021/01/17 06:21:25;;;;;;;27.67;10.67;;;0.40;90.30;;;;;;4905315;29;20076;-80
2021/01/17 06:24:02;;;;;;;27.87;12.13;;;0.50;90.30;;;;;;4904417;29;20039;-80
2021/01/17 06:26:36;;;;;;;26.57;12.60;;;0.40;90.30;;;;;;4920313;29;20034;-81
2021/01/17 06:29:05;;;;;;;27.40;11.40;;;0.40;90.50;;;;;;4910347;29;20035;-80
2021/01/17 06:31:31;;;;;;;27.90;11.17;;;0.40;90.50;;;;;;4915041;29;20032;-78
2021/01/17 06:34:14;;;;;;;25.87;12.57;;;0.40;90.60;;;;;;4916519;29;20030;-81
2021/01/17 06:36:46;;;;;;;26.40;11.27;;;0.40;90.60;;;;;;4923321;29;20349;-79
2021/01/17 06:39:18;;;;;;;;;;;0.40;90.60;;;;;;4917568;29;20040;-80
2021/01/17 06:41:44;;;;;;;;;;;0.50;90.70;;;;;;4904120;29;19927;-80
2021/01/17 06:44:12;;;;;;;25.67;10.43;;;0.40;90.80;;;;;;4918255;29;19906;-80
2021/01/17 06:46:45;;;;;;;23.43;11.17;;;0.40;90.70;;;;;;4906606;29;20047;-80
2021/01/17 06:49:31;;;;;;;24.60;11.03;;;0.40;90.80;;;;;;4922808;29;20039;-79
2021/01/17 06:51:58;;;;;;;27.00;11.13;;;0.40;90.90;;;;;;4910931;29;20063;-79
2021/01/17 06:54:42;;;;;;;23.30;10.43;;;0.50;90.80;;;;;;4919924;29;20027;-78
2021/01/17 06:57:08;;;;;;;24.93;11.60;;;0.50;91.10;;;;;;4902544;29;20053;-79
2021/01/17 06:59:43;;;;;;;29.83;11.50;;;0.40;90.90;;;;;;4914971;29;20142;-78
2021/01/17 07:02:18;;;;;;;23.60;10.50;;;0.40;90.80;;;;;;4919041;29;20076;-79
2021/01/17 07:04:52;;;;;;;21.93;10.37;;;0.40;90.80;;;;;;4908547;29;20024;-79
2021/01/17 07:07:39;;;;;;;23.70;10.20;;;0.50;90.90;;;;;;4909755;29;20461;-79
2021/01/17 07:10:07;;;;;;;22.67;10.57;;;0.50;90.80;;;;;;4905430;29;20068;-79
2021/01/17 07:12:56;;;;;;;24.93;10.90;;;0.50;90.70;;;;;;4915575;29;20116;-79
2021/01/17 07:15:29;;;;;;;24.43;10.30;;;0.60;90.80;;;;;;4909670;29;20046;-80
2021/01/17 07:18:04;;;;;;;22.03;9.60;;;0.60;90.70;;;;;;4920217;29;20091;-80
2021/01/17 07:20:36;;;;;;;25.27;10.80;;;0.60;90.70;;;;;;4904210;29;20040;-80
2021/01/17 07:23:03;;;;;;;24.37;10.83;;;0.60;90.80;;;;;;4914653;29;20546;-80
2021/01/17 07:25:31;;;;;;;20.43;9.53;;;0.50;90.90;;;;;;4900656;29;20267;-79
2021/01/17 07:28:11;;;;;;;19.70;9.87;;;0.60;90.90;;;;;;4900124;29;20028;-79
2021/01/17 07:30:37;;;;;;;19.97;9.73;;;0.60;90.90;;;;;;4915730;29;20496;-79
2021/01/17 07:33:05;;;;;;;21.27;9.80;;;0.60;90.80;;;;;;4906429;29;20032;-80
2021/01/17 07:35:38;;;;;;;21.10;10.07;;;0.70;90.80;;;;;;4911032;29;20483;-78
2021/01/17 07:38:13;;;;;;;18.63;9.43;;;0.70;90.70;;;;;;4913245;29;20040;-80
2021/01/17 07:40:55;;;;;;;21.07;10.17;;;0.70;90.70;;;;;;4903070;29;20071;-79
2021/01/17 07:43:22;;;;;;;20.47;9.63;;;0.70;90.70;;;;;;4913798;29;20184;-79
2021/01/17 07:45:49;;;;;;;20.77;9.07;;;0.70;90.80;;;;;;4911795;29;20463;-79
2021/01/17 07:48:15;;;;;;;20.33;9.43;;;0.80;90.70;;;;;;4904544;29;20043;-80
2021/01/17 07:50:46;;;;;;;22.03;9.80;;;0.80;90.70;;;;;;4917256;29;20040;-80
2021/01/17 07:53:19;;;;;;;22.77;10.13;;;0.80;90.70;;;;;;4914016;29;20024;-80
2021/01/17 07:55:46;;;;;;;23.93;9.77;;;0.80;90.90;;;;;;4899919;29;20425;-80
2021/01/17 07:58:13;;;;;;;18.87;9.17;;;0.80;90.90;;;;;;4913986;29;20039;-80
2021/01/17 08:00:39;;;;;;;21.10;9.90;;;0.80;91.00;;;;;;4918560;29;20111;-80
2021/01/17 08:03:05;;;;;;;18.77;9.03;;;0.80;91.10;;;;;;4922559;29;20032;-81
2021/01/17 08:05:53;;;;;;;19.17;8.83;;;0.80;91.10;;;;;;4938496;29;20033;-76
2021/01/17 08:08:34;;;;;;;18.73;8.70;;;0.90;91.10;;;;;;4908702;29;20107;-78
2021/01/17 08:11:03;;;;;;;22.73;9.80;;;0.90;91.10;;;;;;4922638;29;20020;-79
2021/01/17 08:13:32;;;;;;;20.70;9.47;;;0.90;91.10;;;;;;4915283;29;20115;-79
2021/01/17 08:16:08;;;;;;;20.23;8.80;;;0.90;91.10;;;;;;4917114;29;20035;-79
2021/01/17 08:18:35;;;;;;;18.53;9.07;;;1.00;90.90;;;;;;4920326;29;20090;-77
2021/01/17 08:21:19;;;;;;;19.33;9.10;;;1.00;91.00;;;;;;4903969;29;20048;-80
2021/01/17 08:24:13;;;;;;;22.97;9.47;;;1.00;90.90;;;;;;4913414;29;20028;-80
2021/01/17 08:26:58;;;;;;;24.23;10.63;;;1.00;91.00;;;;;;4906472;29;20034;-80
2021/01/17 08:29:24;;;;;;;22.60;9.73;;;1.00;91.10;;;;;;4938604;29;20032;-80
2021/01/17 08:31:50;;;;;;;21.67;9.93;;;0.90;91.20;;;;;;4922952;29;20028;-80
2021/01/17 08:34:17;;;;;;;22.97;9.97;;;0.90;91.20;;;;;;4921894;29;20397;-79
2021/01/17 08:36:44;;;;;;;23.40;9.83;;;1.00;91.10;;;;;;4906836;29;20474;-79
2021/01/17 08:39:11;;;;;;;21.40;9.23;;;1.00;91.10;;;;;;4916532;29;20032;-79
2021/01/17 08:41:39;;;;;;;22.83;9.57;;;1.00;91.20;;;;;;4912822;29;20466;-80
2021/01/17 08:44:07;;;;;;;22.77;9.70;;;1.00;91.10;;;;;;4938719;29;20125;-80
2021/01/17 08:46:38;;;;;;;20.47;9.23;;;0.90;91.20;;;;;;4905779;29;20041;-78
2021/01/17 08:49:04;;;;;;;20.50;9.33;;;1.00;91.20;;;;;;4916754;29;20111;-79
2021/01/17 08:51:30;;;;;;;19.50;9.23;;;1.00;91.10;;;;;;4912142;29;20037;-79
2021/01/17 08:54:22;;;;;;;21.00;8.80;;;1.10;91.00;;;;;;4922432;29;20060;-78
2021/01/17 08:56:48;;;;;;;17.10;8.30;;;1.10;90.90;;;;;;4917798;29;20045;-80
2021/01/17 08:59:33;;;;;;;17.60;8.50;;;1.10;90.90;;;;;;4910655;29;20060;-80
2021/01/17 09:02:00;;;;;;;19.83;8.83;;;1.20;90.80;;;;;;4910301;29;20036;-78
2021/01/17 09:04:27;;;;;;;21.90;8.53;;;1.20;90.80;;;;;;4919708;29;20501;-79
2021/01/17 09:06:53;;;;;;;17.83;8.30;;;1.10;90.90;;;;;;4913397;29;20028;-78
2021/01/17 09:09:19;;;;;;;20.77;9.17;;;1.10;91.00;;;;;;4909904;29;20038;-79
2021/01/17 09:11:45;;;;;;;19.07;8.83;;;1.20;91.10;;;;;;4928736;29;20032;-79
2021/01/17 09:14:14;;;;;;;17.07;7.80;;;1.20;90.90;;;;;;4939643;29;20036;-78
2021/01/17 09:17:10;;;;;;;21.97;9.30;;;1.30;90.80;;;;;;4922234;29;20028;-79
2021/01/17 09:19:37;;;;;;;22.13;8.43;;;1.20;90.90;;;;;;4917862;29;20120;-81
2021/01/17 09:22:04;;;;;;;18.30;8.77;;;1.30;90.90;;;;;;4911634;29;20039;-78
2021/01/17 09:24:32;;;;;;;22.73;9.43;;;1.20;91.10;;;;;;4924392;29;20028;-79
2021/01/17 09:27:00;;;;;;;21.87;9.20;;;1.20;91.10;;;;;;4906380;29;20024;-79
2021/01/17 09:29:32;;;;;;;17.60;8.27;;;1.30;91.10;;;;;;4912382;29;20111;-79
2021/01/17 09:31:59;;;;;;;17.70;6.93;;;1.30;91.10;;;;;;4906920;29;20035;-79
2021/01/17 09:34:27;;;;;;;18.80;8.97;;;1.30;91.10;;;;;;4918087;29;20047;-79
2021/01/17 09:36:54;;;;;;;20.53;8.80;;;1.30;91.10;;;;;;4905860;29;20027;-78
2021/01/17 09:39:28;;;;;;;17.77;8.53;;;1.30;91.10;;;;;;4910897;29;20031;-78
2021/01/17 09:41:54;;;;;;;17.10;8.03;;;1.30;91.00;;;;;;4909194;29;20115;-79
2021/01/17 09:44:20;;;;;;;18.50;9.03;;;1.40;90.90;;;;;;4902254;29;20071;-79
2021/01/17 09:46:45;;;;;;;20.37;8.53;;;1.40;90.90;;;;;;4917619;29;20487;-78
2021/01/17 09:49:11;;;;;;;20.47;9.17;;;1.40;90.90;;;;;;4908320;29;20032;-79
2021/01/17 09:51:37;;;;;;;18.93;8.63;;;1.40;90.80;;;;;;4911942;29;20076;-81
2021/01/17 09:54:03;;;;;;;16.37;8.50;;;1.50;90.90;;;;;;4936611;29;20055;-79
2021/01/17 09:56:30;;;;;;;18.53;8.80;;;1.50;90.70;;;;;;4910023;29;20056;-81
2021/01/17 09:58:55;;;;;;;20.77;9.60;;;1.60;90.70;;;;;;4916965;29;20036;-83
2021/01/17 10:01:21;;;;;;;18.30;8.10;;;1.70;90.50;;;;;;4932910;29;20043;-84
2021/01/17 10:03:48;;;;;;;19.53;8.97;;;1.70;90.40;;;;;;4921656;29;20386;-87
2021/01/17 10:06:16;;;;;;;17.30;8.20;;;1.70;90.50;;;;;;4907549;29;20056;-87
2021/01/17 10:08:43;;;;;;;20.83;9.37;;;1.70;90.50;;;;;;4919266;29;20488;-89
2021/01/17 10:11:08;;;;;;;18.63;8.97;;;1.70;90.50;;;;;;4924301;29;20028;-87
2021/01/17 10:13:34;;;;;;;17.73;9.00;;;1.70;90.40;;;;;;4916756;29;20469;-83
2021/01/17 10:16:00;;;;;;;19.50;8.90;;;1.80;90.60;;;;;;4921073;29;20058;-82
2021/01/17 10:18:25;;;;;;;19.30;9.07;;;1.80;90.40;;;;;;4907804;29;20040;-83
2021/01/17 10:20:56;;;;;;;17.47;8.47;;;1.80;90.40;;;;;;4913241;29;20067;-82
2021/01/17 10:23:30;;;;;;;18.33;9.10;;;1.80;90.30;;;;;;4916939;29;20033;-82
2021/01/17 10:25:56;;;;;;;20.17;8.83;;;1.90;90.40;;;;;;4917053;29;20050;-82
2021/01/17 10:28:25;;;;;;;20.33;10.37;;;2.00;90.30;;;;;;4917656;29;20470;-83
2021/01/17 10:30:57;;;;;;;19.10;8.73;;;2.00;90.10;;;;;;4917153;29;20563;-83
2021/01/17 10:33:23;;;;;;;16.73;7.90;;;2.00;90.10;;;;;;4911061;29;20036;-83
2021/01/17 10:35:50;;;;;;;16.97;7.93;;;2.00;89.80;;;;;;4927224;29;20028;-82
2021/01/17 10:38:18;;;;;;;17.07;8.43;;;2.10;89.60;;;;;;4907014;29;20123;-83
2021/01/17 10:40:45;;;;;;;18.90;8.83;;;2.10;89.40;;;;;;4918073;29;20037;-84
2021/01/17 10:43:15;;;;;;;20.37;8.57;;;2.20;89.20;;;;;;4907605;29;20083;-83
2021/01/17 10:45:44;;;;;;;17.17;8.10;;;2.20;89.20;;;;;;4919578;29;20032;-90
2021/01/17 10:48:16;;;;;;;16.43;7.77;;;2.20;89.30;;;;;;4922584;29;20035;-86
2021/01/17 10:50:47;;;;;;;16.38;8.18;;;2.30;89.00;;;;;;4921019;29;20032;-86
2021/01/17 10:53:25;;;;;;;18.25;7.55;;;2.30;89.30;;;;;;4915093;29;20099;-92
2021/01/17 10:55:58;;;;;;;15.97;7.63;;;2.30;89.00;;;;;;4914099;29;20079;-80
2021/01/17 10:58:39;;;;;;;16.10;7.30;;;2.40;88.80;;;;;;4940047;29;20042;-79
2021/01/17 11:01:05;;;;;;;13.73;7.53;;;2.40;88.80;;;;;;4923474;29;20032;-84
2021/01/17 11:03:36;;;;;;;15.67;7.13;;;2.30;88.90;;;;;;4931706;29;20111;-84
2021/01/17 11:06:12;;;;;;;14.07;6.88;;;2.30;89.00;;;;;;4930021;29;20087;-84
2021/01/17 11:08:46;;;;;;;14.30;7.23;;;2.30;89.40;;;;;;4922023;29;20036;-85
2021/01/17 11:11:13;;;;;;;14.80;6.87;;;2.30;89.60;;;;;;4927492;29;20035;-83
2021/01/17 11:13:40;;;;;;;15.20;7.67;;;2.40;89.80;;;;;;4912614;29;20036;-84
2021/01/17 11:16:06;;;;;;;14.90;6.87;;;2.40;89.50;;;;;;4917889;29;20114;-83
2021/01/17 11:18:31;;;;;;;13.53;6.40;;;2.40;89.50;;;;;;4920191;29;20036;-79
2021/01/17 11:20:59;;;;;;;15.27;7.33;;;2.40;89.70;;;;;;4935989;29;20079;-85
2021/01/17 11:23:25;;;;;;;13.70;6.93;;;2.30;89.70;;;;;;4909000;29;20024;-84
2021/01/17 11:25:59;;;;;;;12.60;6.83;;;2.30;90.00;;;;;;4930373;29;20181;-86
2021/01/17 11:28:28;;;;;;;14.10;6.80;;;2.30;90.00;;;;;;4911244;29;20032;-84
2021/01/17 11:30:54;;;;;;;14.43;7.23;;;2.40;90.10;;;;;;4922994;29;20031;-83
2021/01/17 11:33:27;;;;;;;12.47;6.80;;;2.40;90.00;;;;;;4915368;29;20028;-81
2021/01/17 11:36:00;;;;;;;11.23;6.60;;;2.50;90.00;;;;;;4913264;29;20036;-83
2021/01/17 11:38:48;;;;;;;16.53;7.23;;;2.40;90.00;;;;;;4911931;29;20111;-84
2021/01/17 11:41:15;;;;;;;14.57;6.63;;;2.40;90.10;;;;;;4930243;29;20054;-88
2021/01/17 11:43:42;;;;;;;15.87;6.90;;;2.40;90.10;;;;;;4915833;29;20052;-86
2021/01/17 11:46:09;;;;;;;16.27;7.80;;;2.50;90.10;;;;;;4912642;29;20037;-85
2021/01/17 11:48:36;;;;;;;14.30;7.47;;;2.50;90.10;;;;;;4909892;29;20409;-79
2021/01/17 11:51:03;;;;;;;16.23;7.27;;;2.50;90.10;;;;;;4925209;29;20036;-86
2021/01/17 11:53:30;;;;;;;12.90;6.80;;;2.50;90.20;;;;;;4917361;29;20492;-85
2021/01/17 11:55:56;;;;;;;15.50;7.17;;;2.60;90.10;;;;;;4918216;29;20067;-84
2021/01/17 11:58:24;;;;;;;13.40;7.20;;;2.60;89.90;;;;;;4911741;29;20040;-85
2021/01/17 12:00:59;;;;;;;14.67;7.43;;;2.60;90.00;;;;;;4923978;29;20047;-87
2021/01/17 12:03:27;;;;;;;14.63;6.93;;;2.50;90.10;;;;;;4922514;29;20024;-85
2021/01/17 12:06:01;;;;;;;12.23;6.90;;;2.50;90.10;;;;;;4940424;29;20059;-86
2021/01/17 12:08:58;;;;;;;14.63;6.80;;;2.50;90.20;;;;;;4931436;29;20028;-88
2021/01/17 12:11:28;;;;;;;13.47;6.83;;;2.50;90.10;;;;;;4925787;29;20039;-89
2021/01/17 12:13:54;;;;;;;14.00;7.10;;;2.50;90.10;;;;;;4919837;29;20028;-84
2021/01/17 12:16:51;;;;;;;14.30;7.20;;;2.50;90.30;;;;;;4935723;29;20026;-90
2021/01/17 12:19:17;;;;;;;15.53;7.03;;;2.50;90.50;;;;;;4919259;29;20048;-85
2021/01/17 12:21:44;;;;;;;10.37;6.10;;;2.50;90.40;;;;;;4928560;29;20497;-83
2021/01/17 12:24:15;;;;;;;13.53;6.37;;;2.50;90.50;;;;;;4917932;29;20030;-83
2021/01/17 12:26:42;;;;;;;13.60;6.70;;;2.40;90.60;;;;;;4906314;29;20115;-84
2021/01/17 12:29:08;;;;;;;12.43;6.30;;;2.40;90.60;;;;;;4912194;29;20477;-84
2021/01/17 12:31:35;;;;;;;11.57;5.80;;;2.40;90.60;;;;;;4912983;29;20033;-84
2021/01/17 12:34:00;;;;;;;12.70;6.00;;;2.50;90.70;;;;;;4927082;29;20067;-84
2021/01/17 12:36:28;;;;;;;9.60;5.50;;;2.50;90.60;;;;;;4920902;29;20046;-83
2021/01/17 12:38:54;;;;;;;9.37;5.00;;;2.50;90.70;;;;;;4923285;29;20035;-84
2021/01/17 12:41:26;;;;;;;10.23;5.37;;;2.50;90.70;;;;;;4945879;28;20075;-85
2021/01/17 12:43:53;;;;;;;11.47;6.07;;;2.40;90.80;;;;;;4924630;29;20082;-90
2021/01/17 12:46:19;;;;;;;10.07;6.00;;;2.40;90.90;;;;;;4908673;29;20485;-89
2021/01/17 12:48:46;;;;;;;10.23;5.43;;;2.30;90.90;;;;;;4909985;29;20039;-84
2021/01/17 12:51:12;;;;;;;11.17;5.70;;;2.30;91.00;;;;;;4927225;29;20031;-85
2021/01/17 12:53:39;;;;;;;9.60;5.13;;;2.30;91.00;;;;;;4915094;29;20394;-85